sensor_id;sensor_type;location;lat;lon;timestamp;temperature;humidity
11764;DHT22;5939;56.522;14.950;2023-05-14T07:35:10;17.00;82.60
11764;DHT22;5939;56.522;14.950;2023-05-14T07:37:36;18.10;90.00
11764;DHT22;5939;56.522;14.950;2023-05-14T07:40:02;18.20;89.40
11764;DHT22;5939;56.522;14.950;2023-05-14T07:42:28;18.30;89.10
11764;DHT22;5939;56.522;14.950;2023-05-14T07:44:53;18.40;88.90
11764;DHT22;5939;56.522;14.950;2023-05-14T07:47:19;18.50;88.80
11764;DHT22;5939;56.522;14.950;2023-05-14T07:49:45;18.60;88.80
11764;DHT22;5939;56.522;14.950;2023-05-14T07:52:10;18.70;88.20
11764;DHT22;5939;56.522;14.950;2023-05-14T07:54:36;18.80;87.90
11764;DHT22;5939;56.522;14.950;2023-05-14T07:57:01;18.90;87.80
11764;DHT22;5939;56.522;14.950;2023-05-14T07:59:27;19.00;87.80
11764;DHT22;5939;56.522;14.950;2023-05-14T08:01:53;19.10;87.60
11764;DHT22;5939;56.522;14.950;2023-05-14T08:04:18;19.20;87.60
11764;DHT22;5939;56.522;14.950;2023-05-14T08:06:44;19.30;87.80
11764;DHT22;5939;56.522;14.950;2023-05-14T08:09:10;19.50;87.80
11764;DHT22;5939;56.522;14.950;2023-05-14T08:11:35;19.60;87.60
11764;DHT22;5939;56.522;14.950;2023-05-14T08:14:01;19.70;87.20
11764;DHT22;5939;56.522;14.950;2023-05-14T08:16:27;19.80;86.80
11764;DHT22;5939;56.522;14.950;2023-05-14T08:18:52;19.90;86.80
11764;DHT22;5939;56.522;14.950;2023-05-14T08:21:18;20.00;87.40
11764;DHT22;5939;56.522;14.950;2023-05-14T08:23:43;20.10;86.60
11764;DHT22;5939;56.522;14.950;2023-05-14T08:26:09;20.20;86.20
11764;DHT22;5939;56.522;14.950;2023-05-14T08:28:35;20.30;85.40
11764;DHT22;5939;56.522;14.950;2023-05-14T08:31:01;20.40;85.10
11764;DHT22;5939;56.522;14.950;2023-05-14T08:33:26;20.50;83.80
11764;DHT22;5939;56.522;14.950;2023-05-14T08:35:52;20.60;84.20
11764;DHT22;5939;56.522;14.950;2023-05-14T08:38:18;20.70;84.10
11764;DHT22;5939;56.522;14.950;2023-05-14T08:41:10;20.80;84.40
11764;DHT22;5939;56.522;14.950;2023-05-14T08:46:29;20.90;84.10
11764;DHT22;5939;56.522;14.950;2023-05-14T08:49:15;21.00;84.40
11764;DHT22;5939;56.522;14.950;2023-05-14T08:51:45;21.10;82.90
11764;DHT22;5939;56.522;14.950;2023-05-14T08:54:16;21.30;83.30
11764;DHT22;5939;56.522;14.950;2023-05-14T08:56:43;21.30;82.70
11764;DHT22;5939;56.522;14.950;2023-05-14T08:59:11;21.40;82.80
11764;DHT22;5939;56.522;14.950;2023-05-14T09:01:37;21.40;81.90
11764;DHT22;5939;56.522;14.950;2023-05-14T09:04:05;21.50;81.70
11764;DHT22;5939;56.522;14.950;2023-05-14T09:06:37;21.60;81.60
11764;DHT22;5939;56.522;14.950;2023-05-14T09:09:03;21.60;81.10
11764;DHT22;5939;56.522;14.950;2023-05-14T09:11:29;21.70;81.10
11764;DHT22;5939;56.522;14.950;2023-05-14T09:13:55;21.70;81.40
11764;DHT22;5939;56.522;14.950;2023-05-14T09:16:21;21.80;80.50
11764;DHT22;5939;56.522;14.950;2023-05-14T09:18:48;21.90;80.50
11764;DHT22;5939;56.522;14.950;2023-05-14T09:21:14;21.90;80.70
11764;DHT22;5939;56.522;14.950;2023-05-14T09:23:43;22.00;80.00
11764;DHT22;5939;56.522;14.950;2023-05-14T09:26:10;22.10;80.10
11764;DHT22;5939;56.522;14.950;2023-05-14T09:28:39;22.10;80.20
11764;DHT22;5939;56.522;14.950;2023-05-14T09:31:08;22.20;80.00
11764;DHT22;5939;56.522;14.950;2023-05-14T09:33:33;22.30;80.20
11764;DHT22;5939;56.522;14.950;2023-05-14T09:36:00;22.30;80.10
11764;DHT22;5939;56.522;14.950;2023-05-14T09:38:32;22.40;80.40
11764;DHT22;5939;56.522;14.950;2023-05-14T09:40:59;22.50;79.60
11764;DHT22;5939;56.522;14.950;2023-05-14T09:43:25;22.50;79.60
11764;DHT22;5939;56.522;14.950;2023-05-14T09:45:51;22.60;79.30
11764;DHT22;5939;56.522;14.950;2023-05-14T09:48:17;22.60;79.50
11764;DHT22;5939;56.522;14.950;2023-05-14T09:50:44;22.70;79.80
11764;DHT22;5939;56.522;14.950;2023-05-14T09:53:10;22.80;78.40
11764;DHT22;5939;56.522;14.950;2023-05-14T09:55:37;22.80;78.50
11764;DHT22;5939;56.522;14.950;2023-05-14T09:58:03;22.90;78.80
11764;DHT22;5939;56.522;14.950;2023-05-14T10:00:34;22.90;78.60
11764;DHT22;5939;56.522;14.950;2023-05-14T10:03:04;23.00;78.60
11764;DHT22;5939;56.522;14.950;2023-05-14T10:05:35;23.00;77.80
11764;DHT22;5939;56.522;14.950;2023-05-14T10:08:07;23.00;77.50
11764;DHT22;5939;56.522;14.950;2023-05-14T10:10:34;23.00;78.30
11764;DHT22;5939;56.522;14.950;2023-05-14T10:13:08;23.00;78.00
11764;DHT22;5939;56.522;14.950;2023-05-14T10:15:47;23.10;77.80
11764;DHT22;5939;56.522;14.950;2023-05-14T10:18:18;23.10;76.50
11764;DHT22;5939;56.522;14.950;2023-05-14T10:20:47;23.20;76.20
11764;DHT22;5939;56.522;14.950;2023-05-14T10:23:18;23.20;76.50
11764;DHT22;5939;56.522;14.950;2023-05-14T10:25:44;23.20;77.00
11764;DHT22;5939;56.522;14.950;2023-05-14T10:28:10;23.20;76.90
11764;DHT22;5939;56.522;14.950;2023-05-14T10:30:43;23.30;77.50
11764;DHT22;5939;56.522;14.950;2023-05-14T10:33:14;23.30;77.10
11764;DHT22;5939;56.522;14.950;2023-05-14T10:36:00;23.30;77.20
11764;DHT22;5939;56.522;14.950;2023-05-14T10:38:28;23.40;76.90
11764;DHT22;5939;56.522;14.950;2023-05-14T10:40:56;23.40;75.90
11764;DHT22;5939;56.522;14.950;2023-05-14T10:43:26;23.40;76.10
11764;DHT22;5939;56.522;14.950;2023-05-14T10:45:54;23.50;76.50
11764;DHT22;5939;56.522;14.950;2023-05-14T10:48:19;23.50;76.60
11764;DHT22;5939;56.522;14.950;2023-05-14T10:50:47;23.50;76.60
11764;DHT22;5939;56.522;14.950;2023-05-14T10:53:13;23.50;77.10
11764;DHT22;5939;56.522;14.950;2023-05-14T10:55:41;23.50;77.80
11764;DHT22;5939;56.522;14.950;2023-05-14T10:58:11;23.40;77.90
11764;DHT22;5939;56.522;14.950;2023-05-14T11:00:37;23.40;77.70
11764;DHT22;5939;56.522;14.950;2023-05-14T11:03:05;23.40;78.10
11764;DHT22;5939;56.522;14.950;2023-05-14T11:05:32;23.40;77.50
11764;DHT22;5939;56.522;14.950;2023-05-14T11:07:58;23.40;78.00
11764;DHT22;5939;56.522;14.950;2023-05-14T11:10:26;23.40;76.60
11764;DHT22;5939;56.522;14.950;2023-05-14T11:12:55;23.40;75.60
11764;DHT22;5939;56.522;14.950;2023-05-14T11:15:23;23.40;76.00
11764;DHT22;5939;56.522;14.950;2023-05-14T11:17:51;23.50;76.20
11764;DHT22;5939;56.522;14.950;2023-05-14T11:20:18;23.50;76.20
11764;DHT22;5939;56.522;14.950;2023-05-14T11:22:45;23.50;76.70
11764;DHT22;5939;56.522;14.950;2023-05-14T11:25:12;23.50;76.50
11764;DHT22;5939;56.522;14.950;2023-05-14T11:27:39;23.60;77.40
11764;DHT22;5939;56.522;14.950;2023-05-14T11:30:16;23.60;76.40
11764;DHT22;5939;56.522;14.950;2023-05-14T11:32:47;23.50;75.70
11764;DHT22;5939;56.522;14.950;2023-05-14T11:35:13;23.60;75.90
11764;DHT22;5939;56.522;14.950;2023-05-14T11:37:40;23.60;75.80
11764;DHT22;5939;56.522;14.950;2023-05-14T11:40:15;23.50;75.40
11764;DHT22;5939;56.522;14.950;2023-05-14T11:42:41;23.50;74.80
11764;DHT22;5939;56.522;14.950;2023-05-14T11:45:09;23.50;74.60
11764;DHT22;5939;56.522;14.950;2023-05-14T11:47:36;23.40;75.90
11764;DHT22;5939;56.522;14.950;2023-05-14T11:50:02;23.40;74.50
11764;DHT22;5939;56.522;14.950;2023-05-14T11:52:28;23.40;75.10
11764;DHT22;5939;56.522;14.950;2023-05-14T11:54:53;23.40;74.60
11764;DHT22;5939;56.522;14.950;2023-05-14T11:57:21;23.40;75.40
11764;DHT22;5939;56.522;14.950;2023-05-14T11:59:47;23.40;75.60
11764;DHT22;5939;56.522;14.950;2023-05-14T12:02:16;23.40;75.50
11764;DHT22;5939;56.522;14.950;2023-05-14T12:04:43;23.40;75.50
11764;DHT22;5939;56.522;14.950;2023-05-14T12:07:13;23.30;76.60
11764;DHT22;5939;56.522;14.950;2023-05-14T12:09:43;23.30;77.80
11764;DHT22;5939;56.522;14.950;2023-05-14T12:12:14;23.30;76.20
11764;DHT22;5939;56.522;14.950;2023-05-14T12:14:41;23.30;76.40
11764;DHT22;5939;56.522;14.950;2023-05-14T12:17:12;23.20;75.90
11764;DHT22;5939;56.522;14.950;2023-05-14T12:19:39;23.10;75.30
11764;DHT22;5939;56.522;14.950;2023-05-14T12:22:06;23.10;75.40
11764;DHT22;5939;56.522;14.950;2023-05-14T12:24:32;23.10;76.50
11764;DHT22;5939;56.522;14.950;2023-05-14T12:27:00;23.10;76.70
11764;DHT22;5939;56.522;14.950;2023-05-14T12:29:26;23.00;75.70
11764;DHT22;5939;56.522;14.950;2023-05-14T12:31:51;23.00;75.90
11764;DHT22;5939;56.522;14.950;2023-05-14T12:34:17;22.90;75.10
11764;DHT22;5939;56.522;14.950;2023-05-14T12:36:43;22.90;75.40
11764;DHT22;5939;56.522;14.950;2023-05-14T12:39:09;22.80;76.30
11764;DHT22;5939;56.522;14.950;2023-05-14T12:41:36;22.80;75.60
11764;DHT22;5939;56.522;14.950;2023-05-14T12:44:03;22.80;76.40
11764;DHT22;5939;56.522;14.950;2023-05-14T12:46:29;22.70;75.60
11764;DHT22;5939;56.522;14.950;2023-05-14T12:48:56;22.70;75.90
11764;DHT22;5939;56.522;14.950;2023-05-14T12:51:22;22.70;76.70
11764;DHT22;5939;56.522;14.950;2023-05-14T12:53:48;22.70;76.10
11764;DHT22;5939;56.522;14.950;2023-05-14T12:56:13;22.60;76.10
11764;DHT22;5939;56.522;14.950;2023-05-14T12:58:39;22.60;76.70
11764;DHT22;5939;56.522;14.950;2023-05-14T13:01:05;22.60;77.00
11764;DHT22;5939;56.522;14.950;2023-05-14T13:03:31;22.50;77.70
11764;DHT22;5939;56.522;14.950;2023-05-14T13:05:56;22.50;78.10
11764;DHT22;5939;56.522;14.950;2023-05-14T13:08:22;22.50;78.60
11764;DHT22;5939;56.522;14.950;2023-05-14T13:10:52;22.40;79.10
11764;DHT22;5939;56.522;14.950;2023-05-14T13:13:18;22.40;79.40
11764;DHT22;5939;56.522;14.950;2023-05-14T13:15:43;22.40;79.70
11764;DHT22;5939;56.522;14.950;2023-05-14T13:18:11;22.40;79.70
11764;DHT22;5939;56.522;14.950;2023-05-14T13:20:37;22.30;79.80
11764;DHT22;5939;56.522;14.950;2023-05-14T13:23:03;22.30;79.80
11764;DHT22;5939;56.522;14.950;2023-05-14T13:25:28;22.30;79.80
11764;DHT22;5939;56.522;14.950;2023-05-14T13:27:54;22.30;79.40
11764;DHT22;5939;56.522;14.950;2023-05-14T13:30:20;22.30;79.50
11764;DHT22;5939;56.522;14.950;2023-05-14T13:32:46;22.20;79.00
11764;DHT22;5939;56.522;14.950;2023-05-14T13:35:12;22.20;79.10
11764;DHT22;5939;56.522;14.950;2023-05-14T13:37:38;22.20;78.70
11764;DHT22;5939;56.522;14.950;2023-05-14T13:40:04;22.20;79.20
11764;DHT22;5939;56.522;14.950;2023-05-14T13:42:33;22.20;78.30
11764;DHT22;5939;56.522;14.950;2023-05-14T13:44:59;22.10;77.30
11764;DHT22;5939;56.522;14.950;2023-05-14T13:47:25;22.10;77.40
11764;DHT22;5939;56.522;14.950;2023-05-14T13:49:52;22.10;77.50
11764;DHT22;5939;56.522;14.950;2023-05-14T13:52:18;22.10;77.70
11764;DHT22;5939;56.522;14.950;2023-05-14T13:54:43;22.10;76.80
11764;DHT22;5939;56.522;14.950;2023-05-14T13:57:09;22.10;76.60
11764;DHT22;5939;56.522;14.950;2023-05-14T13:59:35;22.10;77.50
11764;DHT22;5939;56.522;14.950;2023-05-14T14:02:01;22.10;78.10
11764;DHT22;5939;56.522;14.950;2023-05-14T14:04:26;22.10;77.30
11764;DHT22;5939;56.522;14.950;2023-05-14T14:06:55;22.10;77.20
11764;DHT22;5939;56.522;14.950;2023-05-14T14:09:21;22.10;75.70
11764;DHT22;5939;56.522;14.950;2023-05-14T14:11:47;22.00;75.70
11764;DHT22;5939;56.522;14.950;2023-05-14T14:14:13;22.00;76.80
11764;DHT22;5939;56.522;14.950;2023-05-14T14:16:38;22.00;75.80
11764;DHT22;5939;56.522;14.950;2023-05-14T14:19:04;22.00;75.40
11764;DHT22;5939;56.522;14.950;2023-05-14T14:21:30;22.00;76.30
11764;DHT22;5939;56.522;14.950;2023-05-14T14:23:57;22.00;76.10
11764;DHT22;5939;56.522;14.950;2023-05-14T14:26:22;22.00;77.40
11764;DHT22;5939;56.522;14.950;2023-05-14T14:28:48;22.00;76.40
11764;DHT22;5939;56.522;14.950;2023-05-14T14:31:15;22.00;76.60
11764;DHT22;5939;56.522;14.950;2023-05-14T14:33:41;22.00;76.20
11764;DHT22;5939;56.522;14.950;2023-05-14T14:36:07;22.00;74.90
11764;DHT22;5939;56.522;14.950;2023-05-14T14:38:33;22.00;75.00
11764;DHT22;5939;56.522;14.950;2023-05-14T14:40:59;22.00;74.30
11764;DHT22;5939;56.522;14.950;2023-05-14T14:43:27;22.00;74.90
11764;DHT22;5939;56.522;14.950;2023-05-14T14:45:53;21.90;75.30
11764;DHT22;5939;56.522;14.950;2023-05-14T14:48:28;21.90;75.10
11764;DHT22;5939;56.522;14.950;2023-05-14T14:51:07;21.90;74.80
11764;DHT22;5939;56.522;14.950;2023-05-14T14:53:33;21.90;74.10
11764;DHT22;5939;56.522;14.950;2023-05-14T14:55:59;21.90;75.00
11764;DHT22;5939;56.522;14.950;2023-05-14T14:58:25;21.90;75.00
11764;DHT22;5939;56.522;14.950;2023-05-14T15:00:56;21.90;75.30
11764;DHT22;5939;56.522;14.950;2023-05-14T15:03:23;21.80;74.80
11764;DHT22;5939;56.522;14.950;2023-05-14T15:05:49;21.80;74.90
11764;DHT22;5939;56.522;14.950;2023-05-14T15:08:15;21.80;74.80
11764;DHT22;5939;56.522;14.950;2023-05-14T15:10:41;21.80;74.20
11764;DHT22;5939;56.522;14.950;2023-05-14T15:13:07;21.80;74.50
11764;DHT22;5939;56.522;14.950;2023-05-14T15:15:34;21.80;74.50
11764;DHT22;5939;56.522;14.950;2023-05-14T15:18:00;21.80;75.20
11764;DHT22;5939;56.522;14.950;2023-05-14T15:20:26;21.80;74.90
11764;DHT22;5939;56.522;14.950;2023-05-14T15:22:51;21.70;75.10
11764;DHT22;5939;56.522;14.950;2023-05-14T15:25:22;21.70;75.50
11764;DHT22;5939;56.522;14.950;2023-05-14T15:27:48;21.70;74.80
11764;DHT22;5939;56.522;14.950;2023-05-14T15:30:14;21.70;74.90
11764;DHT22;5939;56.522;14.950;2023-05-14T15:32:40;21.70;75.60
11764;DHT22;5939;56.522;14.950;2023-05-14T15:35:06;21.70;75.50
11764;DHT22;5939;56.522;14.950;2023-05-14T15:37:36;21.60;75.50
11764;DHT22;5939;56.522;14.950;2023-05-14T15:40:03;21.60;74.20
11764;DHT22;5939;56.522;14.950;2023-05-14T15:42:28;21.60;74.70
11764;DHT22;5939;56.522;14.950;2023-05-14T15:44:54;21.60;75.10
11764;DHT22;5939;56.522;14.950;2023-05-14T15:47:20;21.60;75.40
11764;DHT22;5939;56.522;14.950;2023-05-14T15:49:46;21.60;75.30
11764;DHT22;5939;56.522;14.950;2023-05-14T15:52:12;21.60;75.70
11764;DHT22;5939;56.522;14.950;2023-05-14T15:54:38;21.50;75.60
11764;DHT22;5939;56.522;14.950;2023-05-14T15:57:03;21.50;75.80
11764;DHT22;5939;56.522;14.950;2023-05-14T15:59:29;21.50;75.70
11764;DHT22;5939;56.522;14.950;2023-05-14T16:01:55;21.50;75.80
11764;DHT22;5939;56.522;14.950;2023-05-14T16:04:20;21.50;76.10
11764;DHT22;5939;56.522;14.950;2023-05-14T16:06:46;21.40;74.50
11764;DHT22;5939;56.522;14.950;2023-05-14T16:09:12;21.40;74.20
11764;DHT22;5939;56.522;14.950;2023-05-14T16:11:37;21.40;74.90
11764;DHT22;5939;56.522;14.950;2023-05-14T16:14:03;21.40;75.00
11764;DHT22;5939;56.522;14.950;2023-05-14T16:16:29;21.40;75.50
11764;DHT22;5939;56.522;14.950;2023-05-14T16:18:55;21.30;75.90
11764;DHT22;5939;56.522;14.950;2023-05-14T16:21:20;21.30;76.00
11764;DHT22;5939;56.522;14.950;2023-05-14T16:23:46;21.30;76.00
11764;DHT22;5939;56.522;14.950;2023-05-14T16:26:11;21.30;76.50
11764;DHT22;5939;56.522;14.950;2023-05-14T16:28:37;21.30;76.10
11764;DHT22;5939;56.522;14.950;2023-05-14T16:31:05;21.30;76.10
11764;DHT22;5939;56.522;14.950;2023-05-14T16:33:31;21.20;76.60
11764;DHT22;5939;56.522;14.950;2023-05-14T16:35:57;21.20;76.90
11764;DHT22;5939;56.522;14.950;2023-05-14T16:38:22;21.20;77.30
11764;DHT22;5939;56.522;14.950;2023-05-14T16:40:48;21.20;77.00
11764;DHT22;5939;56.522;14.950;2023-05-14T16:43:14;21.20;77.20
11764;DHT22;5939;56.522;14.950;2023-05-14T16:45:39;21.20;76.50
11764;DHT22;5939;56.522;14.950;2023-05-14T16:48:05;21.10;76.50
11764;DHT22;5939;56.522;14.950;2023-05-14T16:50:31;21.10;76.70
11764;DHT22;5939;56.522;14.950;2023-05-14T16:52:57;21.10;76.70
11764;DHT22;5939;56.522;14.950;2023-05-14T16:55:22;21.10;76.50
11764;DHT22;5939;56.522;14.950;2023-05-14T16:57:48;21.10;76.90
11764;DHT22;5939;56.522;14.950;2023-05-14T17:00:14;21.00;76.80
11764;DHT22;5939;56.522;14.950;2023-05-14T17:02:40;21.00;77.70
11764;DHT22;5939;56.522;14.950;2023-05-14T17:05:06;21.00;77.60
11764;DHT22;5939;56.522;14.950;2023-05-14T17:07:32;21.00;77.20
11764;DHT22;5939;56.522;14.950;2023-05-14T17:09:58;21.00;77.40
11764;DHT22;5939;56.522;14.950;2023-05-14T17:12:25;21.00;77.60
11764;DHT22;5939;56.522;14.950;2023-05-14T17:14:51;21.00;77.70
11764;DHT22;5939;56.522;14.950;2023-05-14T17:17:16;21.00;77.50
11764;DHT22;5939;56.522;14.950;2023-05-14T17:19:43;20.90;77.60
11764;DHT22;5939;56.522;14.950;2023-05-14T17:22:10;20.90;77.80
11764;DHT22;5939;56.522;14.950;2023-05-14T17:24:35;20.90;77.80
11764;DHT22;5939;56.522;14.950;2023-05-14T17:27:04;20.90;78.10
11764;DHT22;5939;56.522;14.950;2023-05-14T17:29:30;20.90;78.60
11764;DHT22;5939;56.522;14.950;2023-05-14T17:31:55;20.90;78.70
11764;DHT22;5939;56.522;14.950;2023-05-14T17:34:21;20.90;78.60
11764;DHT22;5939;56.522;14.950;2023-05-14T17:36:47;20.80;78.50
11764;DHT22;5939;56.522;14.950;2023-05-14T17:39:13;20.80;78.70
11764;DHT22;5939;56.522;14.950;2023-05-14T17:41:38;20.80;79.20
11764;DHT22;5939;56.522;14.950;2023-05-14T17:44:06;20.80;78.90
11764;DHT22;5939;56.522;14.950;2023-05-14T17:46:32;20.80;79.00
11764;DHT22;5939;56.522;14.950;2023-05-14T17:48:58;20.80;79.80
11764;DHT22;5939;56.522;14.950;2023-05-14T17:51:24;20.70;79.10
11764;DHT22;5939;56.522;14.950;2023-05-14T17:53:49;20.70;79.10
11764;DHT22;5939;56.522;14.950;2023-05-14T17:56:15;20.70;79.30
11764;DHT22;5939;56.522;14.950;2023-05-14T18:01:09;20.70;79.60
11764;DHT22;5939;56.522;14.950;2023-05-14T18:03:35;20.60;79.50
11764;DHT22;5939;56.522;14.950;2023-05-14T18:06:01;20.60;79.50
11764;DHT22;5939;56.522;14.950;2023-05-14T18:08:26;20.60;79.60
11764;DHT22;5939;56.522;14.950;2023-05-14T18:10:52;20.60;79.70
11764;DHT22;5939;56.522;14.950;2023-05-14T18:13:18;20.60;79.80
11764;DHT22;5939;56.522;14.950;2023-05-14T18:15:43;20.60;79.90
11764;DHT22;5939;56.522;14.950;2023-05-14T18:18:09;20.50;79.90
11764;DHT22;5939;56.522;14.950;2023-05-14T18:20:35;20.50;80.00
11764;DHT22;5939;56.522;14.950;2023-05-14T18:23:01;20.50;80.10
11764;DHT22;5939;56.522;14.950;2023-05-14T18:25:26;20.50;80.30
11764;DHT22;5939;56.522;14.950;2023-05-14T18:27:52;20.50;80.40
11764;DHT22;5939;56.522;14.950;2023-05-14T18:30:18;20.40;80.50
11764;DHT22;5939;56.522;14.950;2023-05-14T18:32:44;20.40;80.60
11764;DHT22;5939;56.522;14.950;2023-05-14T18:35:10;20.40;80.70
11764;DHT22;5939;56.522;14.950;2023-05-14T18:37:36;20.40;80.80
11764;DHT22;5939;56.522;14.950;2023-05-14T18:40:02;20.40;80.90
11764;DHT22;5939;56.522;14.950;2023-05-14T18:42:29;20.30;81.00
11764;DHT22;5939;56.522;14.950;2023-05-14T18:44:55;20.30;81.10
11764;DHT22;5939;56.522;14.950;2023-05-14T18:47:21;20.30;81.20
11764;DHT22;5939;56.522;14.950;2023-05-14T18:49:46;20.30;81.40
11764;DHT22;5939;56.522;14.950;2023-05-14T18:52:12;20.30;81.40
11764;DHT22;5939;56.522;14.950;2023-05-14T18:54:38;20.20;81.50
11764;DHT22;5939;56.522;14.950;2023-05-14T18:57:03;20.20;81.70
11764;DHT22;5939;56.522;14.950;2023-05-14T18:59:29;20.20;81.70
11764;DHT22;5939;56.522;14.950;2023-05-14T19:01:55;20.10;81.70
11764;DHT22;5939;56.522;14.950;2023-05-14T19:04:20;20.10;81.90
11764;DHT22;5939;56.522;14.950;2023-05-14T19:06:46;20.10;82.00
11764;DHT22;5939;56.522;14.950;2023-05-14T19:09:11;20.10;82.00
11764;DHT22;5939;56.522;14.950;2023-05-14T19:11:39;20.10;82.10
11764;DHT22;5939;56.522;14.950;2023-05-14T19:14:04;20.00;82.10
11764;DHT22;5939;56.522;14.950;2023-05-14T19:16:30;20.00;82.20
11764;DHT22;5939;56.522;14.950;2023-05-14T19:18:56;20.00;82.30
11764;DHT22;5939;56.522;14.950;2023-05-14T19:21:21;20.00;82.40
11764;DHT22;5939;56.522;14.950;2023-05-14T19:23:47;19.90;82.40
11764;DHT22;5939;56.522;14.950;2023-05-14T19:26:12;19.90;82.50
11764;DHT22;5939;56.522;14.950;2023-05-14T19:28:38;19.90;82.60
11764;DHT22;5939;56.522;14.950;2023-05-14T19:31:04;19.90;82.70
11764;DHT22;5939;56.522;14.950;2023-05-14T19:33:30;19.80;82.70
11764;DHT22;5939;56.522;14.950;2023-05-14T19:35:56;19.80;82.90
11764;DHT22;5939;56.522;14.950;2023-05-14T19:38:21;19.80;82.90
11764;DHT22;5939;56.522;14.950;2023-05-14T19:40:47;19.70;83.00
11764;DHT22;5939;56.522;14.950;2023-05-14T19:43:13;19.70;83.10
11764;DHT22;5939;56.522;14.950;2023-05-14T19:45:39;19.70;83.10
11764;DHT22;5939;56.522;14.950;2023-05-14T19:48:09;19.70;83.20
11764;DHT22;5939;56.522;14.950;2023-05-14T19:50:36;19.60;83.30
11764;DHT22;5939;56.522;14.950;2023-05-14T19:53:02;19.60;83.30
11764;DHT22;5939;56.522;14.950;2023-05-14T19:55:28;19.60;83.50
11764;DHT22;5939;56.522;14.950;2023-05-14T19:57:54;19.60;83.60
11764;DHT22;5939;56.522;14.950;2023-05-14T20:00:20;19.50;83.60
11764;DHT22;5939;56.522;14.950;2023-05-14T20:02:47;19.50;83.70
11764;DHT22;5939;56.522;14.950;2023-05-14T20:05:12;19.50;83.80
11764;DHT22;5939;56.522;14.950;2023-05-14T20:07:38;19.40;83.80
11764;DHT22;5939;56.522;14.950;2023-05-14T20:10:04;19.40;83.90
11764;DHT22;5939;56.522;14.950;2023-05-14T20:12:30;19.40;83.90
11764;DHT22;5939;56.522;14.950;2023-05-14T20:14:56;19.30;84.00
11764;DHT22;5939;56.522;14.950;2023-05-14T20:17:21;19.30;84.00
11764;DHT22;5939;56.522;14.950;2023-05-14T20:19:47;19.30;84.00
11764;DHT22;5939;56.522;14.950;2023-05-14T20:22:12;19.30;84.10
11764;DHT22;5939;56.522;14.950;2023-05-14T20:24:39;19.20;84.20
11764;DHT22;5939;56.522;14.950;2023-05-14T20:27:05;19.20;84.30
11764;DHT22;5939;56.522;14.950;2023-05-14T20:29:31;19.10;84.30
11764;DHT22;5939;56.522;14.950;2023-05-14T20:31:57;19.20;84.40
11764;DHT22;5939;56.522;14.950;2023-05-14T20:34:23;19.10;84.40
11764;DHT22;5939;56.522;14.950;2023-05-14T20:36:49;19.00;84.30
11764;DHT22;5939;56.522;14.950;2023-05-14T20:39:15;19.00;84.40
11764;DHT22;5939;56.522;14.950;2023-05-14T20:41:41;19.00;84.40
11764;DHT22;5939;56.522;14.950;2023-05-14T20:44:06;19.00;84.50
11764;DHT22;5939;56.522;14.950;2023-05-14T20:46:32;18.90;84.60
11764;DHT22;5939;56.522;14.950;2023-05-14T20:49:00;18.90;84.60
11764;DHT22;5939;56.522;14.950;2023-05-14T20:51:26;18.90;84.70
11764;DHT22;5939;56.522;14.950;2023-05-14T20:53:52;18.80;84.70
11764;DHT22;5939;56.522;14.950;2023-05-14T20:56:18;18.80;84.80
11764;DHT22;5939;56.522;14.950;2023-05-14T20:58:43;18.70;84.70
11764;DHT22;5939;56.522;14.950;2023-05-14T21:01:09;18.70;84.80
11764;DHT22;5939;56.522;14.950;2023-05-14T21:03:35;18.70;84.90
11764;DHT22;5939;56.522;14.950;2023-05-14T21:06:01;18.60;84.90
11764;DHT22;5939;56.522;14.950;2023-05-14T21:08:27;18.60;84.90
11764;DHT22;5939;56.522;14.950;2023-05-14T21:10:53;18.60;85.00
11764;DHT22;5939;56.522;14.950;2023-05-14T21:13:19;18.60;85.00
11764;DHT22;5939;56.522;14.950;2023-05-14T21:15:45;18.50;85.00
11764;DHT22;5939;56.522;14.950;2023-05-14T21:18:11;18.50;85.10
11764;DHT22;5939;56.522;14.950;2023-05-14T21:20:37;18.40;85.00
11764;DHT22;5939;56.522;14.950;2023-05-14T21:23:03;18.50;85.10
11764;DHT22;5939;56.522;14.950;2023-05-14T21:25:29;18.40;85.10
11764;DHT22;5939;56.522;14.950;2023-05-14T21:27:55;18.40;85.20
11764;DHT22;5939;56.522;14.950;2023-05-14T21:30:20;18.30;85.30
11764;DHT22;5939;56.522;14.950;2023-05-14T21:32:46;18.30;85.30
11764;DHT22;5939;56.522;14.950;2023-05-14T21:35:12;18.30;85.40
11764;DHT22;5939;56.522;14.950;2023-05-14T21:37:38;18.20;85.30
11764;DHT22;5939;56.522;14.950;2023-05-14T21:40:06;18.20;85.40
11764;DHT22;5939;56.522;14.950;2023-05-14T21:42:34;18.20;85.40
11764;DHT22;5939;56.522;14.950;2023-05-14T21:45:00;18.10;85.40
11764;DHT22;5939;56.522;14.950;2023-05-14T21:47:26;18.10;85.50
11764;DHT22;5939;56.522;14.950;2023-05-14T21:49:51;18.10;85.50
11764;DHT22;5939;56.522;14.950;2023-05-14T21:52:17;18.00;85.60
11764;DHT22;5939;56.522;14.950;2023-05-14T21:54:43;18.00;85.60
11764;DHT22;5939;56.522;14.950;2023-05-14T21:57:08;17.90;85.50
11764;DHT22;5939;56.522;14.950;2023-05-14T21:59:35;17.90;85.60
11764;DHT22;5939;56.522;14.950;2023-05-14T22:02:01;17.90;85.50
11764;DHT22;5939;56.522;14.950;2023-05-14T22:04:26;17.90;85.70
11764;DHT22;5939;56.522;14.950;2023-05-14T22:06:52;17.80;85.70
11764;DHT22;5939;56.522;14.950;2023-05-14T22:09:18;17.80;85.70
11764;DHT22;5939;56.522;14.950;2023-05-14T22:11:43;17.70;85.70
11764;DHT22;5939;56.522;14.950;2023-05-14T22:14:09;17.70;85.70
11764;DHT22;5939;56.522;14.950;2023-05-14T22:16:35;17.70;85.80
11764;DHT22;5939;56.522;14.950;2023-05-14T22:19:01;17.70;85.80
11764;DHT22;5939;56.522;14.950;2023-05-14T22:21:27;17.60;85.90
11764;DHT22;5939;56.522;14.950;2023-05-14T22:23:52;17.60;85.90
11764;DHT22;5939;56.522;14.950;2023-05-14T22:26:18;17.50;85.90
11764;DHT22;5939;56.522;14.950;2023-05-14T22:28:46;17.60;86.10
11764;DHT22;5939;56.522;14.950;2023-05-14T22:31:13;17.50;86.00
11764;DHT22;5939;56.522;14.950;2023-05-14T22:33:39;17.50;86.00
11764;DHT22;5939;56.522;14.950;2023-05-14T22:36:05;17.40;86.00
11764;DHT22;5939;56.522;14.950;2023-05-14T22:38:32;17.40;86.10
11764;DHT22;5939;56.522;14.950;2023-05-14T22:40:57;17.40;86.10
11764;DHT22;5939;56.522;14.950;2023-05-14T22:43:23;17.30;86.20
11764;DHT22;5939;56.522;14.950;2023-05-14T22:45:49;17.30;86.30
11764;DHT22;5939;56.522;14.950;2023-05-14T22:48:15;17.30;86.30
11764;DHT22;5939;56.522;14.950;2023-05-14T22:50:40;17.30;86.30
11764;DHT22;5939;56.522;14.950;2023-05-14T22:53:06;17.20;86.40
11764;DHT22;5939;56.522;14.950;2023-05-14T22:55:32;17.20;86.40
11764;DHT22;5939;56.522;14.950;2023-05-14T22:57:57;17.20;86.40
11764;DHT22;5939;56.522;14.950;2023-05-14T23:00:23;17.20;86.40
11764;DHT22;5939;56.522;14.950;2023-05-14T23:02:49;17.10;86.40
11764;DHT22;5939;56.522;14.950;2023-05-14T23:05:15;17.10;86.40